Angora, Nebraska
Current Conditions -  °F | °C
As of 4:53 AM on Tuesday 27 Jan 2015 (Local Time) from KAIA Reporting Station
Clear Clear  
Wind Chill: 22°   Ceiling: Unl
Heat Index: 30°   Visibility: 10mi
Dew Point: 26°   Wind: 8mph
Humidity: 85%   Direction: 260°W
Pressure: 30.04"   Gusts: NA
Location:  41.85°N, 103.13°W
Report Text: KAIA 271153Z AUTO 26007KT 10SM CLR M01/M03 A3004 RMK AO2 SLP183 T10111033 10011 21028 58006
Loading
Personal Weather Stations






























Interactive Weather Map New forecast layout! Learn more

10-Day Weather Forecast

Advertisements
Track Severe Weather on mobile